sensor_id;sensor_type;location;lat;lon;timestamp;temperature;humidity
44982;DHT22;30716;41.740;-70.400;2023-04-23T00:01:03;23.70;41.10
44982;DHT22;30716;41.740;-70.400;2023-04-23T00:03:31;23.70;41.10
44982;DHT22;30716;41.740;-70.400;2023-04-23T00:06:05;23.70;41.20
44982;DHT22;30716;41.740;-70.400;2023-04-23T00:08:33;23.70;41.10
44982;DHT22;30716;41.740;-70.400;2023-04-23T00:10:59;23.80;41.20
44982;DHT22;30716;41.740;-70.400;2023-04-23T00:13:25;23.80;41.20
44982;DHT22;30716;41.740;-70.400;2023-04-23T00:15:51;23.80;41.20
44982;DHT22;30716;41.740;-70.400;2023-04-23T00:18:18;23.80;41.00
44982;DHT22;30716;41.740;-70.400;2023-04-23T00:20:44;23.80;41.00
44982;DHT22;30716;41.740;-70.400;2023-04-23T00:23:11;23.80;41.20
44982;DHT22;30716;41.740;-70.400;2023-04-23T00:25:37;23.80;41.20
44982;DHT22;30716;41.740;-70.400;2023-04-23T00:28:03;23.80;41.20
44982;DHT22;30716;41.740;-70.400;2023-04-23T00:30:29;23.80;41.10
44982;DHT22;30716;41.740;-70.400;2023-04-23T00:32:55;23.80;41.10
44982;DHT22;30716;41.740;-70.400;2023-04-23T00:35:21;23.80;41.10
44982;DHT22;30716;41.740;-70.400;2023-04-23T00:37:48;23.80;41.20
44982;DHT22;30716;41.740;-70.400;2023-04-23T00:40:14;23.70;41.00
44982;DHT22;30716;41.740;-70.400;2023-04-23T00:42:40;23.80;41.00
44982;DHT22;30716;41.740;-70.400;2023-04-23T00:45:07;23.80;41.20
44982;DHT22;30716;41.740;-70.400;2023-04-23T00:47:34;23.80;41.20
44982;DHT22;30716;41.740;-70.400;2023-04-23T00:50:01;23.80;41.20
44982;DHT22;30716;41.740;-70.400;2023-04-23T00:52:27;23.70;41.10
44982;DHT22;30716;41.740;-70.400;2023-04-23T00:54:54;23.70;41.10
44982;DHT22;30716;41.740;-70.400;2023-04-23T00:57:23;23.80;41.20
44982;DHT22;30716;41.740;-70.400;2023-04-23T00:59:51;23.80;41.20
44982;DHT22;30716;41.740;-70.400;2023-04-23T01:02:17;23.80;41.30
44982;DHT22;30716;41.740;-70.400;2023-04-23T01:04:44;23.80;41.20
44982;DHT22;30716;41.740;-70.400;2023-04-23T01:07:12;23.70;41.20
44982;DHT22;30716;41.740;-70.400;2023-04-23T01:09:38;23.70;41.30
44982;DHT22;30716;41.740;-70.400;2023-04-23T01:12:05;23.70;41.10
44982;DHT22;30716;41.740;-70.400;2023-04-23T01:14:32;23.70;41.20
44982;DHT22;30716;41.740;-70.400;2023-04-23T01:16:59;23.70;41.20
44982;DHT22;30716;41.740;-70.400;2023-04-23T01:19:26;23.70;41.20
44982;DHT22;30716;41.740;-70.400;2023-04-23T01:21:52;23.70;41.40
44982;DHT22;30716;41.740;-70.400;2023-04-23T01:24:19;23.70;41.40
44982;DHT22;30716;41.740;-70.400;2023-04-23T01:26:46;23.70;41.20
44982;DHT22;30716;41.740;-70.400;2023-04-23T01:29:12;23.70;41.20
44982;DHT22;30716;41.740;-70.400;2023-04-23T01:31:39;23.70;41.20
44982;DHT22;30716;41.740;-70.400;2023-04-23T01:34:06;23.70;41.20
44982;DHT22;30716;41.740;-70.400;2023-04-23T01:36:34;23.70;41.30
44982;DHT22;30716;41.740;-70.400;2023-04-23T01:39:06;23.70;41.40
44982;DHT22;30716;41.740;-70.400;2023-04-23T01:41:33;23.70;41.20
44982;DHT22;30716;41.740;-70.400;2023-04-23T01:43:59;23.70;41.30
44982;DHT22;30716;41.740;-70.400;2023-04-23T01:46:26;23.70;41.30
44982;DHT22;30716;41.740;-70.400;2023-04-23T01:48:53;23.70;41.10
44982;DHT22;30716;41.740;-70.400;2023-04-23T01:51:19;23.70;41.10
44982;DHT22;30716;41.740;-70.400;2023-04-23T01:53:45;23.70;41.10
44982;DHT22;30716;41.740;-70.400;2023-04-23T01:56:11;23.80;41.30
44982;DHT22;30716;41.740;-70.400;2023-04-23T01:58:39;23.80;41.10
44982;DHT22;30716;41.740;-70.400;2023-04-23T02:01:06;23.80;41.10
44982;DHT22;30716;41.740;-70.400;2023-04-23T02:03:32;23.80;41.00
44982;DHT22;30716;41.740;-70.400;2023-04-23T02:05:59;23.80;41.00
44982;DHT22;30716;41.740;-70.400;2023-04-23T02:08:27;23.80;40.90
44982;DHT22;30716;41.740;-70.400;2023-04-23T02:10:53;23.80;41.00
44982;DHT22;30716;41.740;-70.400;2023-04-23T02:13:19;23.80;41.00
44982;DHT22;30716;41.740;-70.400;2023-04-23T02:15:46;23.80;40.90
44982;DHT22;30716;41.740;-70.400;2023-04-23T02:18:12;23.80;40.90
44982;DHT22;30716;41.740;-70.400;2023-04-23T02:20:38;23.90;41.10
44982;DHT22;30716;41.740;-70.400;2023-04-23T02:23:09;23.80;41.00
44982;DHT22;30716;41.740;-70.400;2023-04-23T02:25:36;23.90;40.90
44982;DHT22;30716;41.740;-70.400;2023-04-23T02:28:06;23.90;40.90
44982;DHT22;30716;41.740;-70.400;2023-04-23T02:30:33;23.90;41.00
44982;DHT22;30716;41.740;-70.400;2023-04-23T02:33:00;24.00;41.00
44982;DHT22;30716;41.740;-70.400;2023-04-23T02:35:26;23.90;40.90
44982;DHT22;30716;41.740;-70.400;2023-04-23T02:37:53;24.00;40.90
44982;DHT22;30716;41.740;-70.400;2023-04-23T02:40:20;24.00;40.90
44982;DHT22;30716;41.740;-70.400;2023-04-23T02:42:48;24.00;40.90
44982;DHT22;30716;41.740;-70.400;2023-04-23T02:45:15;24.00;40.70
44982;DHT22;30716;41.740;-70.400;2023-04-23T02:47:41;24.00;40.90
44982;DHT22;30716;41.740;-70.400;2023-04-23T02:50:08;24.00;41.00
44982;DHT22;30716;41.740;-70.400;2023-04-23T02:52:34;24.00;40.90
44982;DHT22;30716;41.740;-70.400;2023-04-23T02:55:00;24.00;40.90
44982;DHT22;30716;41.740;-70.400;2023-04-23T02:57:27;24.00;41.00
44982;DHT22;30716;41.740;-70.400;2023-04-23T02:59:53;24.00;41.00
44982;DHT22;30716;41.740;-70.400;2023-04-23T03:02:20;24.00;41.00
44982;DHT22;30716;41.740;-70.400;2023-04-23T03:04:46;24.00;41.00
44982;DHT22;30716;41.740;-70.400;2023-04-23T03:07:12;24.00;40.90
44982;DHT22;30716;41.740;-70.400;2023-04-23T03:09:38;24.10;41.00
44982;DHT22;30716;41.740;-70.400;2023-04-23T03:12:06;24.00;40.90
44982;DHT22;30716;41.740;-70.400;2023-04-23T03:14:33;24.10;41.00
44982;DHT22;30716;41.740;-70.400;2023-04-23T03:16:59;24.10;40.90
44982;DHT22;30716;41.740;-70.400;2023-04-23T03:19:25;24.10;41.00
44982;DHT22;30716;41.740;-70.400;2023-04-23T03:21:51;24.10;41.00
44982;DHT22;30716;41.740;-70.400;2023-04-23T03:24:18;24.00;41.70
44982;DHT22;30716;41.740;-70.400;2023-04-23T03:26:44;24.00;41.00
44982;DHT22;30716;41.740;-70.400;2023-04-23T03:29:10;24.00;41.00
44982;DHT22;30716;41.740;-70.400;2023-04-23T03:31:36;24.10;41.00
44982;DHT22;30716;41.740;-70.400;2023-04-23T03:34:02;24.10;41.00
44982;DHT22;30716;41.740;-70.400;2023-04-23T03:36:29;24.00;40.90
44982;DHT22;30716;41.740;-70.400;2023-04-23T03:38:55;24.00;40.90
44982;DHT22;30716;41.740;-70.400;2023-04-23T03:41:21;24.00;40.90
44982;DHT22;30716;41.740;-70.400;2023-04-23T03:43:47;24.00;40.90
44982;DHT22;30716;41.740;-70.400;2023-04-23T03:46:13;24.00;40.90
44982;DHT22;30716;41.740;-70.400;2023-04-23T03:48:39;24.10;41.00
44982;DHT22;30716;41.740;-70.400;2023-04-23T03:51:05;24.00;40.80
44982;DHT22;30716;41.740;-70.400;2023-04-23T03:53:31;24.00;40.80
44982;DHT22;30716;41.740;-70.400;2023-04-23T03:55:58;24.00;40.90
44982;DHT22;30716;41.740;-70.400;2023-04-23T03:58:24;24.00;40.80
44982;DHT22;30716;41.740;-70.400;2023-04-23T04:00:51;24.00;40.80
44982;DHT22;30716;41.740;-70.400;2023-04-23T04:03:17;24.00;41.00
44982;DHT22;30716;41.740;-70.400;2023-04-23T04:05:43;24.00;40.90
44982;DHT22;30716;41.740;-70.400;2023-04-23T04:08:09;24.00;41.00
44982;DHT22;30716;41.740;-70.400;2023-04-23T04:10:36;24.00;41.00
44982;DHT22;30716;41.740;-70.400;2023-04-23T04:13:02;24.00;40.90
44982;DHT22;30716;41.740;-70.400;2023-04-23T04:15:28;24.00;41.00
44982;DHT22;30716;41.740;-70.400;2023-04-23T04:17:54;24.00;41.00
44982;DHT22;30716;41.740;-70.400;2023-04-23T04:20:20;24.10;41.00
44982;DHT22;30716;41.740;-70.400;2023-04-23T04:22:47;24.10;41.10
44982;DHT22;30716;41.740;-70.400;2023-04-23T04:25:13;24.00;40.90
44982;DHT22;30716;41.740;-70.400;2023-04-23T04:27:39;24.00;40.90
44982;DHT22;30716;41.740;-70.400;2023-04-23T04:30:07;24.10;41.00
44982;DHT22;30716;41.740;-70.400;2023-04-23T04:32:33;24.10;41.00
44982;DHT22;30716;41.740;-70.400;2023-04-23T04:35:00;24.10;41.00
44982;DHT22;30716;41.740;-70.400;2023-04-23T04:37:27;24.10;40.90
44982;DHT22;30716;41.740;-70.400;2023-04-23T04:39:53;24.10;40.70
44982;DHT22;30716;41.740;-70.400;2023-04-23T04:42:19;24.10;40.70
44982;DHT22;30716;41.740;-70.400;2023-04-23T04:44:46;24.10;40.90
44982;DHT22;30716;41.740;-70.400;2023-04-23T04:47:12;24.10;40.80
44982;DHT22;30716;41.740;-70.400;2023-04-23T04:49:41;24.10;40.80
44982;DHT22;30716;41.740;-70.400;2023-04-23T04:52:07;24.10;40.80
44982;DHT22;30716;41.740;-70.400;2023-04-23T04:54:33;24.10;40.80
44982;DHT22;30716;41.740;-70.400;2023-04-23T04:56:59;24.20;40.70
44982;DHT22;30716;41.740;-70.400;2023-04-23T04:59:27;24.20;40.80
44982;DHT22;30716;41.740;-70.400;2023-04-23T05:01:53;24.10;40.60
44982;DHT22;30716;41.740;-70.400;2023-04-23T05:04:19;24.20;40.70
44982;DHT22;30716;41.740;-70.400;2023-04-23T05:06:48;24.10;40.80
44982;DHT22;30716;41.740;-70.400;2023-04-23T05:09:14;24.10;40.70
44982;DHT22;30716;41.740;-70.400;2023-04-23T05:11:41;24.10;40.70
44982;DHT22;30716;41.740;-70.400;2023-04-23T05:14:08;24.20;40.90
44982;DHT22;30716;41.740;-70.400;2023-04-23T05:16:34;24.20;41.00
44982;DHT22;30716;41.740;-70.400;2023-04-23T05:19:00;24.10;40.80
44982;DHT22;30716;41.740;-70.400;2023-04-23T05:21:27;24.10;40.80
44982;DHT22;30716;41.740;-70.400;2023-04-23T05:23:54;24.10;41.00
44982;DHT22;30716;41.740;-70.400;2023-04-23T05:26:20;24.20;41.00
44982;DHT22;30716;41.740;-70.400;2023-04-23T05:28:46;24.20;40.90
44982;DHT22;30716;41.740;-70.400;2023-04-23T05:31:12;24.20;40.90
44982;DHT22;30716;41.740;-70.400;2023-04-23T05:33:39;24.20;40.90
44982;DHT22;30716;41.740;-70.400;2023-04-23T05:36:05;24.20;41.00
44982;DHT22;30716;41.740;-70.400;2023-04-23T05:38:32;24.20;41.00
44982;DHT22;30716;41.740;-70.400;2023-04-23T05:40:59;24.20;41.10
44982;DHT22;30716;41.740;-70.400;2023-04-23T05:43:25;24.20;41.00
44982;DHT22;30716;41.740;-70.400;2023-04-23T05:45:51;24.10;40.90
44982;DHT22;30716;41.740;-70.400;2023-04-23T05:48:17;24.10;41.00
44982;DHT22;30716;41.740;-70.400;2023-04-23T05:50:43;24.10;41.00
44982;DHT22;30716;41.740;-70.400;2023-04-23T05:53:09;24.10;41.00
44982;DHT22;30716;41.740;-70.400;2023-04-23T05:55:36;24.10;41.10
44982;DHT22;30716;41.740;-70.400;2023-04-23T05:58:02;24.10;41.00
44982;DHT22;30716;41.740;-70.400;2023-04-23T06:00:28;24.10;41.00
44982;DHT22;30716;41.740;-70.400;2023-04-23T06:02:54;24.10;41.10
44982;DHT22;30716;41.740;-70.400;2023-04-23T06:05:20;24.10;41.00
44982;DHT22;30716;41.740;-70.400;2023-04-23T06:07:47;24.10;41.10
44982;DHT22;30716;41.740;-70.400;2023-04-23T06:10:13;24.10;41.10
44982;DHT22;30716;41.740;-70.400;2023-04-23T06:12:39;24.10;41.20
44982;DHT22;30716;41.740;-70.400;2023-04-23T06:15:07;24.10;41.20
44982;DHT22;30716;41.740;-70.400;2023-04-23T06:17:34;24.10;41.20
44982;DHT22;30716;41.740;-70.400;2023-04-23T06:20:01;24.10;41.20
44982;DHT22;30716;41.740;-70.400;2023-04-23T06:22:27;24.00;41.20
44982;DHT22;30716;41.740;-70.400;2023-04-23T06:24:53;24.10;41.20
44982;DHT22;30716;41.740;-70.400;2023-04-23T06:27:19;24.10;41.20
44982;DHT22;30716;41.740;-70.400;2023-04-23T06:29:45;24.00;41.10
44982;DHT22;30716;41.740;-70.400;2023-04-23T06:32:12;24.00;41.20
44982;DHT22;30716;41.740;-70.400;2023-04-23T06:34:38;24.00;41.20
44982;DHT22;30716;41.740;-70.400;2023-04-23T06:37:04;24.00;41.10
44982;DHT22;30716;41.740;-70.400;2023-04-23T06:39:30;24.00;41.10
44982;DHT22;30716;41.740;-70.400;2023-04-23T06:41:56;24.00;41.20
44982;DHT22;30716;41.740;-70.400;2023-04-23T06:44:23;24.00;41.00
44982;DHT22;30716;41.740;-70.400;2023-04-23T06:46:49;24.10;41.10
44982;DHT22;30716;41.740;-70.400;2023-04-23T06:49:15;24.10;41.00
44982;DHT22;30716;41.740;-70.400;2023-04-23T06:51:41;24.10;41.00
44982;DHT22;30716;41.740;-70.400;2023-04-23T06:54:08;24.00;41.10
44982;DHT22;30716;41.740;-70.400;2023-04-23T06:56:34;24.00;41.00
44982;DHT22;30716;41.740;-70.400;2023-04-23T06:59:01;24.00;41.00
44982;DHT22;30716;41.740;-70.400;2023-04-23T07:01:27;24.00;41.00
44982;DHT22;30716;41.740;-70.400;2023-04-23T07:03:53;24.00;41.00
44982;DHT22;30716;41.740;-70.400;2023-04-23T07:06:19;24.00;41.00
44982;DHT22;30716;41.740;-70.400;2023-04-23T07:08:46;24.00;41.00
44982;DHT22;30716;41.740;-70.400;2023-04-23T07:11:12;24.00;41.10
44982;DHT22;30716;41.740;-70.400;2023-04-23T07:13:38;24.00;41.20
44982;DHT22;30716;41.740;-70.400;2023-04-23T07:16:05;24.00;41.10
44982;DHT22;30716;41.740;-70.400;2023-04-23T07:18:31;24.00;41.00
44982;DHT22;30716;41.740;-70.400;2023-04-23T07:20:57;24.00;41.20
44982;DHT22;30716;41.740;-70.400;2023-04-23T07:23:23;24.00;41.20
44982;DHT22;30716;41.740;-70.400;2023-04-23T07:25:50;23.90;41.10
44982;DHT22;30716;41.740;-70.400;2023-04-23T07:28:16;24.00;41.10
44982;DHT22;30716;41.740;-70.400;2023-04-23T07:30:42;24.00;41.00
44982;DHT22;30716;41.740;-70.400;2023-04-23T07:33:09;24.00;41.00
44982;DHT22;30716;41.740;-70.400;2023-04-23T07:35:35;24.00;41.00
44982;DHT22;30716;41.740;-70.400;2023-04-23T07:38:01;24.00;41.00
44982;DHT22;30716;41.740;-70.400;2023-04-23T07:40:28;24.00;41.00
44982;DHT22;30716;41.740;-70.400;2023-04-23T07:42:54;24.00;41.10
44982;DHT22;30716;41.740;-70.400;2023-04-23T07:45:20;24.00;41.10
44982;DHT22;30716;41.740;-70.400;2023-04-23T07:47:48;24.00;41.00
44982;DHT22;30716;41.740;-70.400;2023-04-23T07:50:14;24.00;41.00
44982;DHT22;30716;41.740;-70.400;2023-04-23T07:52:40;24.00;41.20
44982;DHT22;30716;41.740;-70.400;2023-04-23T07:55:07;24.00;41.00
44982;DHT22;30716;41.740;-70.400;2023-04-23T07:57:34;24.00;41.20
44982;DHT22;30716;41.740;-70.400;2023-04-23T08:00:00;23.90;41.90
44982;DHT22;30716;41.740;-70.400;2023-04-23T08:02:27;24.00;41.20
44982;DHT22;30716;41.740;-70.400;2023-04-23T08:04:53;24.00;41.20
44982;DHT22;30716;41.740;-70.400;2023-04-23T08:07:19;24.00;41.20
44982;DHT22;30716;41.740;-70.400;2023-04-23T08:09:45;23.90;41.10
44982;DHT22;30716;41.740;-70.400;2023-04-23T08:12:12;24.00;41.10
44982;DHT22;30716;41.740;-70.400;2023-04-23T08:14:38;24.00;41.10
44982;DHT22;30716;41.740;-70.400;2023-04-23T08:17:04;24.00;41.10
44982;DHT22;30716;41.740;-70.400;2023-04-23T08:19:30;24.00;41.10
44982;DHT22;30716;41.740;-70.400;2023-04-23T08:21:58;24.00;41.20
44982;DHT22;30716;41.740;-70.400;2023-04-23T08:24:25;24.10;41.20
44982;DHT22;30716;41.740;-70.400;2023-04-23T08:26:52;24.00;41.10
44982;DHT22;30716;41.740;-70.400;2023-04-23T08:29:18;24.00;41.00
44982;DHT22;30716;41.740;-70.400;2023-04-23T08:31:44;24.10;41.20
44982;DHT22;30716;41.740;-70.400;2023-04-23T08:34:10;24.10;41.00
44982;DHT22;30716;41.740;-70.400;2023-04-23T08:36:37;24.10;41.10
44982;DHT22;30716;41.740;-70.400;2023-04-23T08:39:03;24.10;40.90
44982;DHT22;30716;41.740;-70.400;2023-04-23T08:41:37;24.10;41.00
44982;DHT22;30716;41.740;-70.400;2023-04-23T08:44:17;24.10;41.10
44982;DHT22;30716;41.740;-70.400;2023-04-23T08:46:44;24.10;41.00
44982;DHT22;30716;41.740;-70.400;2023-04-23T08:49:15;24.10;40.80
44982;DHT22;30716;41.740;-70.400;2023-04-23T08:51:54;24.20;41.00
44982;DHT22;30716;41.740;-70.400;2023-04-23T08:54:25;24.10;40.80
44982;DHT22;30716;41.740;-70.400;2023-04-23T08:56:57;24.10;40.90
44982;DHT22;30716;41.740;-70.400;2023-04-23T08:59:29;24.10;40.80
44982;DHT22;30716;41.740;-70.400;2023-04-23T09:01:59;24.10;41.00
44982;DHT22;30716;41.740;-70.400;2023-04-23T09:04:27;24.20;41.10
44982;DHT22;30716;41.740;-70.400;2023-04-23T09:06:54;24.10;40.90
44982;DHT22;30716;41.740;-70.400;2023-04-23T09:09:22;24.20;41.00
44982;DHT22;30716;41.740;-70.400;2023-04-23T09:11:49;24.20;41.00
44982;DHT22;30716;41.740;-70.400;2023-04-23T09:14:15;24.20;41.00
44982;DHT22;30716;41.740;-70.400;2023-04-23T09:16:42;24.20;41.00
44982;DHT22;30716;41.740;-70.400;2023-04-23T09:19:10;24.20;41.00
44982;DHT22;30716;41.740;-70.400;2023-04-23T09:21:38;24.20;41.00
44982;DHT22;30716;41.740;-70.400;2023-04-23T09:24:08;24.20;41.00
44982;DHT22;30716;41.740;-70.400;2023-04-23T09:26:45;24.20;40.90
44982;DHT22;30716;41.740;-70.400;2023-04-23T09:29:17;24.20;41.00
44982;DHT22;30716;41.740;-70.400;2023-04-23T09:31:48;24.20;41.00
44982;DHT22;30716;41.740;-70.400;2023-04-23T09:34:23;24.20;41.00
44982;DHT22;30716;41.740;-70.400;2023-04-23T09:36:51;24.20;40.90
44982;DHT22;30716;41.740;-70.400;2023-04-23T09:39:22;24.20;40.90
44982;DHT22;30716;41.740;-70.400;2023-04-23T09:41:51;24.30;41.60
44982;DHT22;30716;41.740;-70.400;2023-04-23T09:44:19;24.20;40.80
44982;DHT22;30716;41.740;-70.400;2023-04-23T09:46:51;24.30;40.90
44982;DHT22;30716;41.740;-70.400;2023-04-23T09:49:17;24.30;40.90
44982;DHT22;30716;41.740;-70.400;2023-04-23T09:51:45;24.30;40.80
44982;DHT22;30716;41.740;-70.400;2023-04-23T09:54:21;24.30;40.90
44982;DHT22;30716;41.740;-70.400;2023-04-23T09:56:51;24.30;41.00
44982;DHT22;30716;41.740;-70.400;2023-04-23T09:59:29;24.30;41.00
44982;DHT22;30716;41.740;-70.400;2023-04-23T10:01:55;24.30;40.80
44982;DHT22;30716;41.740;-70.400;2023-04-23T10:04:23;24.30;40.80
44982;DHT22;30716;41.740;-70.400;2023-04-23T10:06:53;24.40;40.90
44982;DHT22;30716;41.740;-70.400;2023-04-23T10:09:24;24.30;40.90
44982;DHT22;30716;41.740;-70.400;2023-04-23T10:11:51;24.40;41.00
44982;DHT22;30716;41.740;-70.400;2023-04-23T10:14:20;24.30;41.00
44982;DHT22;30716;41.740;-70.400;2023-04-23T10:16:46;24.30;41.00
44982;DHT22;30716;41.740;-70.400;2023-04-23T10:19:18;24.30;41.00
44982;DHT22;30716;41.740;-70.400;2023-04-23T10:21:52;24.30;40.80
44982;DHT22;30716;41.740;-70.400;2023-04-23T10:24:23;24.30;40.90
44982;DHT22;30716;41.740;-70.400;2023-04-23T10:26:57;24.30;41.00
44982;DHT22;30716;41.740;-70.400;2023-04-23T10:29:29;24.30;41.00
44982;DHT22;30716;41.740;-70.400;2023-04-23T10:32:04;24.30;41.00
44982;DHT22;30716;41.740;-70.400;2023-04-23T10:34:33;24.30;41.00
44982;DHT22;30716;41.740;-70.400;2023-04-23T10:37:01;24.30;41.00
44982;DHT22;30716;41.740;-70.400;2023-04-23T10:39:32;24.30;41.00
44982;DHT22;30716;41.740;-70.400;2023-04-23T10:42:00;24.30;41.00
44982;DHT22;30716;41.740;-70.400;2023-04-23T10:44:38;24.30;41.00
44982;DHT22;30716;41.740;-70.400;2023-04-23T10:47:05;24.30;41.00
44982;DHT22;30716;41.740;-70.400;2023-04-23T10:49:33;24.30;41.10
44982;DHT22;30716;41.740;-70.400;2023-04-23T10:52:15;24.30;41.10
44982;DHT22;30716;41.740;-70.400;2023-04-23T10:54:51;24.30;40.80
44982;DHT22;30716;41.740;-70.400;2023-04-23T10:57:21;24.30;41.10
44982;DHT22;30716;41.740;-70.400;2023-04-23T10:59:54;24.30;41.10
44982;DHT22;30716;41.740;-70.400;2023-04-23T11:02:24;24.30;41.00
44982;DHT22;30716;41.740;-70.400;2023-04-23T11:04:55;24.30;41.00
44982;DHT22;30716;41.740;-70.400;2023-04-23T11:07:27;24.20;41.00
44982;DHT22;30716;41.740;-70.400;2023-04-23T11:09:58;24.20;40.90
44982;DHT22;30716;41.740;-70.400;2023-04-23T11:14:57;24.20;41.20
44982;DHT22;30716;41.740;-70.400;2023-04-23T11:20:18;24.20;41.00
44982;DHT22;30716;41.740;-70.400;2023-04-23T11:22:49;24.20;41.20
44982;DHT22;30716;41.740;-70.400;2023-04-23T11:25:21;24.20;41.10
44982;DHT22;30716;41.740;-70.400;2023-04-23T11:27:49;24.20;41.20
44982;DHT22;30716;41.740;-70.400;2023-04-23T11:30:27;24.20;41.30
44982;DHT22;30716;41.740;-70.400;2023-04-23T11:32:55;24.10;41.20
44982;DHT22;30716;41.740;-70.400;2023-04-23T11:35:22;24.10;41.10
44982;DHT22;30716;41.740;-70.400;2023-04-23T11:37:58;24.10;41.20
44982;DHT22;30716;41.740;-70.400;2023-04-23T11:40:24;24.10;41.20
44982;DHT22;30716;41.740;-70.400;2023-04-23T11:42:52;24.10;41.20
44982;DHT22;30716;41.740;-70.400;2023-04-23T11:47:48;24.10;41.30
44982;DHT22;30716;41.740;-70.400;2023-04-23T11:50:20;24.10;41.20
44982;DHT22;30716;41.740;-70.400;2023-04-23T11:52:47;24.10;41.30
44982;DHT22;30716;41.740;-70.400;2023-04-23T11:55:13;24.10;41.20
44982;DHT22;30716;41.740;-70.400;2023-04-23T11:57:45;24.10;41.30
44982;DHT22;30716;41.740;-70.400;2023-04-23T12:00:29;24.10;41.30
44982;DHT22;30716;41.740;-70.400;2023-04-23T12:02:59;24.10;41.40
44982;DHT22;30716;41.740;-70.400;2023-04-23T12:05:31;24.10;41.30
44982;DHT22;30716;41.740;-70.400;2023-04-23T12:08:11;24.10;41.30
44982;DHT22;30716;41.740;-70.400;2023-04-23T12:13:23;24.10;41.40
44982;DHT22;30716;41.740;-70.400;2023-04-23T12:15:54;24.10;41.40
44982;DHT22;30716;41.740;-70.400;2023-04-23T12:18:32;24.10;41.40
44982;DHT22;30716;41.740;-70.400;2023-04-23T12:21:12;24.10;41.50
44982;DHT22;30716;41.740;-70.400;2023-04-23T12:23:41;24.10;41.40
44982;DHT22;30716;41.740;-70.400;2023-04-23T12:26:15;24.10;41.40
44982;DHT22;30716;41.740;-70.400;2023-04-23T12:28:53;24.00;41.30
44982;DHT22;30716;41.740;-70.400;2023-04-23T12:31:21;24.00;41.40
44982;DHT22;30716;41.740;-70.400;2023-04-23T12:34:06;24.00;41.40
44982;DHT22;30716;41.740;-70.400;2023-04-23T12:36:34;24.00;41.50
44982;DHT22;30716;41.740;-70.400;2023-04-23T12:39:28;24.00;41.60
44982;DHT22;30716;41.740;-70.400;2023-04-23T12:42:00;24.00;41.50
44982;DHT22;30716;41.740;-70.400;2023-04-23T12:44:33;24.00;41.60
44982;DHT22;30716;41.740;-70.400;2023-04-23T12:47:04;24.00;41.50
44982;DHT22;30716;41.740;-70.400;2023-04-23T12:49:33;24.00;41.50
44982;DHT22;30716;41.740;-70.400;2023-04-23T12:52:01;24.00;41.50
44982;DHT22;30716;41.740;-70.400;2023-04-23T12:54:30;24.00;41.40
44982;DHT22;30716;41.740;-70.400;2023-04-23T12:56:58;24.00;41.60
44982;DHT22;30716;41.740;-70.400;2023-04-23T12:59:25;24.00;41.70
44982;DHT22;30716;41.740;-70.400;2023-04-23T13:01:51;24.00;41.70
44982;DHT22;30716;41.740;-70.400;2023-04-23T13:04:17;24.00;41.60
44982;DHT22;30716;41.740;-70.400;2023-04-23T13:06:44;24.00;41.60
44982;DHT22;30716;41.740;-70.400;2023-04-23T13:09:10;24.00;41.70
44982;DHT22;30716;41.740;-70.400;2023-04-23T13:11:40;24.00;41.70
44982;DHT22;30716;41.740;-70.400;2023-04-23T13:14:07;24.00;41.60
44982;DHT22;30716;41.740;-70.400;2023-04-23T13:16:34;23.90;41.70
44982;DHT22;30716;41.740;-70.400;2023-04-23T13:19:01;23.90;41.70
44982;DHT22;30716;41.740;-70.400;2023-04-23T13:21:27;23.90;41.70
44982;DHT22;30716;41.740;-70.400;2023-04-23T13:23:53;23.90;41.70
44982;DHT22;30716;41.740;-70.400;2023-04-23T13:26:19;23.90;41.60
44982;DHT22;30716;41.740;-70.400;2023-04-23T13:28:46;23.90;41.80
44982;DHT22;30716;41.740;-70.400;2023-04-23T13:31:12;23.90;41.80
44982;DHT22;30716;41.740;-70.400;2023-04-23T13:33:39;23.90;41.80
44982;DHT22;30716;41.740;-70.400;2023-04-23T13:36:05;23.90;41.80
44982;DHT22;30716;41.740;-70.400;2023-04-23T13:38:32;23.90;42.00
44982;DHT22;30716;41.740;-70.400;2023-04-23T13:40:58;23.80;41.90
44982;DHT22;30716;41.740;-70.400;2023-04-23T13:43:25;23.90;41.80
44982;DHT22;30716;41.740;-70.400;2023-04-23T13:45:52;23.90;41.90
44982;DHT22;30716;41.740;-70.400;2023-04-23T13:48:19;23.80;41.80
44982;DHT22;30716;41.740;-70.400;2023-04-23T13:50:46;23.90;41.80
44982;DHT22;30716;41.740;-70.400;2023-04-23T13:53:12;23.80;41.80
44982;DHT22;30716;41.740;-70.400;2023-04-23T13:55:38;23.80;41.70
44982;DHT22;30716;41.740;-70.400;2023-04-23T13:58:05;23.80;41.80
44982;DHT22;30716;41.740;-70.400;2023-04-23T14:00:32;23.80;41.80
44982;DHT22;30716;41.740;-70.400;2023-04-23T14:02:58;23.80;41.80
44982;DHT22;30716;41.740;-70.400;2023-04-23T14:05:24;23.80;41.70
44982;DHT22;30716;41.740;-70.400;2023-04-23T14:07:50;23.80;41.70
44982;DHT22;30716;41.740;-70.400;2023-04-23T14:10:17;23.80;41.70
44982;DHT22;30716;41.740;-70.400;2023-04-23T14:12:44;23.80;41.80
44982;DHT22;30716;41.740;-70.400;2023-04-23T14:15:11;23.80;41.90
44982;DHT22;30716;41.740;-70.400;2023-04-23T14:17:38;23.80;41.90
44982;DHT22;30716;41.740;-70.400;2023-04-23T14:20:06;23.80;41.90
44982;DHT22;30716;41.740;-70.400;2023-04-23T14:22:32;23.80;41.80
44982;DHT22;30716;41.740;-70.400;2023-04-23T14:25:07;23.80;41.80
44982;DHT22;30716;41.740;-70.400;2023-04-23T14:27:55;23.80;41.90
44982;DHT22;30716;41.740;-70.400;2023-04-23T14:30:21;23.80;42.00
44982;DHT22;30716;41.740;-70.400;2023-04-23T14:32:50;23.80;42.10
44982;DHT22;30716;41.740;-70.400;2023-04-23T14:35:18;23.80;42.00
44982;DHT22;30716;41.740;-70.400;2023-04-23T14:37:44;23.70;41.90
44982;DHT22;30716;41.740;-70.400;2023-04-23T14:40:11;23.70;41.80
44982;DHT22;30716;41.740;-70.400;2023-04-23T14:42:40;23.70;42.00
44982;DHT22;30716;41.740;-70.400;2023-04-23T14:45:07;23.70;41.90
44982;DHT22;30716;41.740;-70.400;2023-04-23T14:47:33;23.70;41.80
44982;DHT22;30716;41.740;-70.400;2023-04-23T14:49:59;23.70;41.80
44982;DHT22;30716;41.740;-70.400;2023-04-23T14:52:25;23.70;41.80
44982;DHT22;30716;41.740;-70.400;2023-04-23T14:54:52;23.70;41.80
44982;DHT22;30716;41.740;-70.400;2023-04-23T14:57:21;23.70;41.90
44982;DHT22;30716;41.740;-70.400;2023-04-23T14:59:47;23.70;41.70
44982;DHT22;30716;41.740;-70.400;2023-04-23T15:02:13;23.80;41.80
44982;DHT22;30716;41.740;-70.400;2023-04-23T15:04:39;23.80;41.70
44982;DHT22;30716;41.740;-70.400;2023-04-23T15:07:05;23.80;41.70
44982;DHT22;30716;41.740;-70.400;2023-04-23T15:09:31;23.80;41.70
44982;DHT22;30716;41.740;-70.400;2023-04-23T15:11:58;23.80;41.60
44982;DHT22;30716;41.740;-70.400;2023-04-23T15:14:36;23.80;41.90
44982;DHT22;30716;41.740;-70.400;2023-04-23T15:17:03;23.80;41.70